createdAt,value
2018-06-25T00:01:20.820Z,2.37
2018-06-25T00:03:47.198Z,2.10
2018-06-25T00:06:13.575Z,2.20
2018-06-25T00:08:39.940Z,2.27
2018-06-25T00:11:06.303Z,2.50
2018-06-25T00:13:32.630Z,2.40
2018-06-25T00:15:58.984Z,2.27
2018-06-25T00:18:25.304Z,2.40
2018-06-25T00:20:51.663Z,2.50
2018-06-25T00:23:17.990Z,2.20
2018-06-25T00:25:44.313Z,2.60
2018-06-25T00:28:10.665Z,2.30
2018-06-25T00:30:37.104Z,2.40
2018-06-25T00:33:03.425Z,2.33
2018-06-25T00:35:29.743Z,2.50
2018-06-25T00:37:56.115Z,2.40
2018-06-25T00:40:22.437Z,2.50
2018-06-25T00:42:48.781Z,2.73
2018-06-25T00:45:15.190Z,2.20
2018-06-25T00:47:41.510Z,2.30
2018-06-25T00:50:07.820Z,2.07
2018-06-25T00:52:34.226Z,2.33
2018-06-25T00:55:00.554Z,2.20
2018-06-25T00:57:26.885Z,2.20
2018-06-25T00:59:53.236Z,2.47
2018-06-25T01:02:19.548Z,2.10
2018-06-25T01:04:45.940Z,2.40
2018-06-25T01:07:12.305Z,2.03
2018-06-25T01:09:38.635Z,1.90
2018-06-25T01:12:05.000Z,2.30
2018-06-25T01:14:31.322Z,2.20
2018-06-25T01:16:57.662Z,2.20
2018-06-25T01:19:24.089Z,2.03
2018-06-25T01:21:50.468Z,1.70
2018-06-25T01:24:16.824Z,2.03
2018-06-25T01:26:43.137Z,1.70
2018-06-25T01:29:09.504Z,2.03
2018-06-25T01:31:35.879Z,1.87
2018-06-25T01:34:02.310Z,1.70
2018-06-25T01:36:28.710Z,1.70
2018-06-25T01:38:55.111Z,1.70
2018-06-25T01:41:21.436Z,1.87
2018-06-25T01:43:47.762Z,1.53
2018-06-25T01:46:14.124Z,1.40
2018-06-25T01:48:40.460Z,1.50
2018-06-25T01:51:06.845Z,1.60
2018-06-25T01:53:33.178Z,1.70
2018-06-25T01:55:59.536Z,1.60
2018-06-25T01:58:25.863Z,1.50
2018-06-25T02:00:52.252Z,1.50
2018-06-25T02:03:18.573Z,1.70
2018-06-25T02:05:44.903Z,1.50
2018-06-25T02:08:11.271Z,1.40
2018-06-25T02:10:37.605Z,1.70
2018-06-25T02:13:03.951Z,1.50
2018-06-25T02:15:30.281Z,1.60
2018-06-25T02:17:56.624Z,1.60
2018-06-25T02:20:22.951Z,1.40
2018-06-25T02:22:49.275Z,1.43
2018-06-25T02:25:15.607Z,1.87
2018-06-25T02:27:41.971Z,1.60
2018-06-25T02:30:08.335Z,1.50
2018-06-25T02:32:34.702Z,1.90
2018-06-25T02:35:01.029Z,1.33
2018-06-25T02:37:27.360Z,1.50
2018-06-25T02:39:53.724Z,1.43
2018-06-25T02:42:20.083Z,1.57
2018-06-25T02:44:46.405Z,1.50
2018-06-25T02:47:12.771Z,1.70
2018-06-25T02:49:39.103Z,1.63
2018-06-25T02:52:05.471Z,1.67
2018-06-25T02:54:31.793Z,1.40
2018-06-25T02:56:58.124Z,1.50
2018-06-25T02:59:24.447Z,1.40
2018-06-25T03:01:50.784Z,1.40
2018-06-25T03:04:17.158Z,1.50
2018-06-25T03:06:43.485Z,1.40
2018-06-25T03:09:09.856Z,1.50
2018-06-25T03:11:36.189Z,1.50
2018-06-25T03:14:02.528Z,1.50
2018-06-25T03:16:28.863Z,1.83
2018-06-25T03:18:55.245Z,1.70
2018-06-25T03:21:21.565Z,1.50
2018-06-25T03:23:47.891Z,1.60
2018-06-25T03:26:14.252Z,1.50
2018-06-25T03:28:40.629Z,1.77
2018-06-25T03:31:06.943Z,1.80
2018-06-25T03:33:33.268Z,1.47
2018-06-25T03:35:59.659Z,1.80
2018-06-25T03:38:25.971Z,1.50
2018-06-25T03:40:52.289Z,1.60
2018-06-25T03:43:18.728Z,2.00
2018-06-25T03:45:45.058Z,1.60
2018-06-25T03:48:11.465Z,2.20
2018-06-25T03:50:37.818Z,1.80
2018-06-25T03:53:04.149Z,1.70
2018-06-25T03:55:30.520Z,2.10
2018-06-25T03:57:56.847Z,1.67
2018-06-25T04:00:23.208Z,1.90
2018-06-25T04:02:49.557Z,1.93
2018-06-25T04:05:15.918Z,1.67
2018-06-25T04:07:42.352Z,2.00
2018-06-25T04:10:08.695Z,3.10
2018-06-25T04:12:35.013Z,2.20
2018-06-25T04:15:01.338Z,2.10
2018-06-25T04:17:27.724Z,2.30
2018-06-25T04:19:54.078Z,1.80
2018-06-25T04:22:20.440Z,2.10
2018-06-25T04:24:46.771Z,1.87
2018-06-25T04:27:13.164Z,1.93
2018-06-25T04:29:39.496Z,1.90
2018-06-25T04:32:06.150Z,1.73
2018-06-25T04:34:32.524Z,2.00
2018-06-25T04:36:58.871Z,1.87
2018-06-25T04:39:25.183Z,2.33
2018-06-25T04:41:51.506Z,1.60
2018-06-25T04:44:17.866Z,1.63
2018-06-25T04:46:44.231Z,1.80
2018-06-25T04:49:10.673Z,1.83
2018-06-25T04:51:37.002Z,2.10
2018-06-25T04:54:03.323Z,1.87
2018-06-25T04:56:29.657Z,1.90
2018-06-25T04:58:56.385Z,1.83
2018-06-25T05:01:22.756Z,1.60
2018-06-25T05:03:49.076Z,1.90
2018-06-25T05:06:15.632Z,2.07
2018-06-25T05:08:41.957Z,2.10
2018-06-25T05:11:08.344Z,2.17
2018-06-25T05:13:34.868Z,1.90
2018-06-25T05:16:01.213Z,2.10
2018-06-25T05:18:27.575Z,3.10
2018-06-25T05:20:53.937Z,2.20
2018-06-25T05:23:21.579Z,2.10
2018-06-25T05:25:48.087Z,2.20
2018-06-25T05:28:14.404Z,2.20
2018-06-25T05:30:40.825Z,2.37
2018-06-25T05:33:07.202Z,2.47
2018-06-25T05:35:33.642Z,2.17
2018-06-25T05:37:59.966Z,2.10
2018-06-25T05:40:26.337Z,3.00
2018-06-25T05:42:52.666Z,2.50
2018-06-25T05:45:19.070Z,1.87
2018-06-25T05:47:45.440Z,2.03
2018-06-25T05:50:11.772Z,2.40
2018-06-25T05:52:38.083Z,2.57
2018-06-25T05:55:04.468Z,2.60
2018-06-25T05:57:30.812Z,2.40
2018-06-25T05:59:57.188Z,2.50
2018-06-25T06:02:23.543Z,2.90
2018-06-25T06:04:49.980Z,2.50
2018-06-25T06:07:16.411Z,2.60
2018-06-25T06:09:43.011Z,2.60
2018-06-25T06:12:09.598Z,2.90
2018-06-25T06:14:35.989Z,2.97
2018-06-25T06:17:02.382Z,3.03
2018-06-25T06:19:31.899Z,2.63
2018-06-25T06:21:58.273Z,2.90
2018-06-25T06:24:24.639Z,2.80
2018-06-25T06:26:51.026Z,3.10
2018-06-25T06:29:17.351Z,3.00
2018-06-25T06:31:43.728Z,3.20
2018-06-25T06:34:10.112Z,4.20
2018-06-25T06:36:36.438Z,3.33
2018-06-25T06:39:02.822Z,3.83
2018-06-25T06:41:29.263Z,3.70
2018-06-25T06:43:55.799Z,3.90
2018-06-25T06:46:22.238Z,4.17
2018-06-25T06:48:50.230Z,3.77
2018-06-25T06:51:17.475Z,4.37
2018-06-25T06:53:44.109Z,4.03
2018-06-25T06:56:10.581Z,4.63
2018-06-25T06:58:36.992Z,3.47
2018-06-25T07:01:03.650Z,4.60
2018-06-25T07:03:30.197Z,4.03
2018-06-25T07:05:56.529Z,4.23
2018-06-25T07:08:22.927Z,3.80
2018-06-25T07:10:49.479Z,5.13
2018-06-25T07:13:15.939Z,4.90
2018-06-25T07:15:42.689Z,4.10
2018-06-25T07:18:09.141Z,4.10
2018-06-25T07:20:35.624Z,4.57
2018-06-25T07:23:02.096Z,5.57
2018-06-25T07:25:28.799Z,5.73
2018-06-25T07:27:55.250Z,4.97
2018-06-25T07:30:21.607Z,4.77
2018-06-25T07:32:48.033Z,5.37
2018-06-25T07:35:14.495Z,4.53
2018-06-25T07:37:41.152Z,5.37
2018-06-25T07:40:07.549Z,5.10
2018-06-25T07:42:34.014Z,5.47
2018-06-25T07:45:00.413Z,4.30
2018-06-25T07:47:26.990Z,4.70
2018-06-25T07:49:53.717Z,5.30
2018-06-25T07:52:20.181Z,5.00
2018-06-25T07:54:46.765Z,5.53
2018-06-25T07:57:13.357Z,5.60
2018-06-25T07:59:39.844Z,5.43
2018-06-25T08:02:06.477Z,5.10
2018-06-25T08:04:33.257Z,5.20
2018-06-25T08:06:59.764Z,5.10
2018-06-25T08:09:26.319Z,4.83
2018-06-25T08:11:53.525Z,6.10
2018-06-25T08:14:20.470Z,5.20
2018-06-25T08:16:47.102Z,5.40
2018-06-25T08:19:14.187Z,5.07
2018-06-25T08:21:40.849Z,5.40
2018-06-25T08:24:07.498Z,4.53
2018-06-25T08:26:34.081Z,5.37
2018-06-25T08:29:00.637Z,5.33
2018-06-25T08:31:27.287Z,5.27
2018-06-25T08:33:53.724Z,5.63
2018-06-25T08:36:20.227Z,5.63
2018-06-25T08:38:46.965Z,5.90
2018-06-25T08:41:15.173Z,5.10
2018-06-25T08:43:42.181Z,5.87
2018-06-25T08:46:10.319Z,6.00
2018-06-25T08:48:36.862Z,5.10
2018-06-25T08:51:03.348Z,5.40
2018-06-25T08:53:30.221Z,5.40
2018-06-25T08:55:56.763Z,5.60
2018-06-25T08:58:23.412Z,5.30
2018-06-25T09:00:49.917Z,5.10
2018-06-25T09:03:16.323Z,5.20
2018-06-25T09:05:42.734Z,5.63
2018-06-25T09:08:09.152Z,5.50
2018-06-25T09:10:35.647Z,5.27
2018-06-25T09:13:02.095Z,5.60
2018-06-25T09:15:28.503Z,5.00
2018-06-25T09:17:55.230Z,4.70
2018-06-25T09:20:21.865Z,5.13
2018-06-25T09:22:49.205Z,4.83
2018-06-25T09:25:16.279Z,5.40
2018-06-25T09:27:42.775Z,4.47
2018-06-25T09:30:09.127Z,5.43
2018-06-25T09:32:35.674Z,4.80
2018-06-25T09:35:02.484Z,5.40
2018-06-25T09:37:28.972Z,5.50
2018-06-25T09:39:55.476Z,5.03
2018-06-25T09:42:22.458Z,5.20
2018-06-25T09:44:50.434Z,5.07
2018-06-25T09:47:17.880Z,5.40
2018-06-25T09:49:45.669Z,5.10
2018-06-25T09:52:12.605Z,5.17
2018-06-25T09:54:39.386Z,5.20
2018-06-25T09:57:06.991Z,4.90
2018-06-25T09:59:34.452Z,5.10
2018-06-25T10:02:01.891Z,5.50
2018-06-25T10:04:29.125Z,4.83
2018-06-25T10:06:56.009Z,4.97
2018-06-25T10:09:22.662Z,5.67
2018-06-25T10:11:49.763Z,4.73
2018-06-25T10:14:17.686Z,4.70
2018-06-25T10:16:44.973Z,4.60
2018-06-25T10:19:11.515Z,5.70
2018-06-25T10:21:38.395Z,5.83
2018-06-25T10:24:05.855Z,4.67
2018-06-25T10:26:33.083Z,4.40
2018-06-25T10:29:00.282Z,4.33
2018-06-25T10:31:27.493Z,4.60
2018-06-25T10:33:54.288Z,4.27
2018-06-25T10:36:21.132Z,4.53
2018-06-25T10:38:47.807Z,4.63
2018-06-25T10:41:15.064Z,4.87
2018-06-25T10:43:42.083Z,4.90
2018-06-25T10:46:08.815Z,4.57
2018-06-25T10:48:35.706Z,4.57
2018-06-25T10:51:03.325Z,5.10
2018-06-25T10:53:30.181Z,4.87
2018-06-25T10:55:59.088Z,4.43
2018-06-25T10:58:26.245Z,5.20
2018-06-25T11:00:52.986Z,4.33
2018-06-25T11:03:20.188Z,4.70
2018-06-25T11:05:48.348Z,4.57
2018-06-25T11:08:15.115Z,4.77
2018-06-25T11:10:41.953Z,4.50
2018-06-25T11:13:08.933Z,4.30
2018-06-25T11:15:35.862Z,4.83
2018-06-25T11:18:02.694Z,4.23
2018-06-25T11:20:29.937Z,4.27
2018-06-25T11:22:56.802Z,4.23
2018-06-25T11:25:23.754Z,4.43
2018-06-25T11:27:50.672Z,4.63
2018-06-25T11:30:17.381Z,4.33
2018-06-25T11:32:45.143Z,4.40
2018-06-25T11:35:12.161Z,4.53
2018-06-25T11:37:40.600Z,4.53
2018-06-25T11:40:08.248Z,4.20
2018-06-25T11:42:35.865Z,4.03
2018-06-25T11:47:35.623Z,4.03
2018-06-25T11:50:02.306Z,4.20
2018-06-25T11:52:29.322Z,3.83
2018-06-25T11:54:56.161Z,4.00
2018-06-25T11:57:23.252Z,4.60
2018-06-25T11:59:50.201Z,5.13
2018-06-25T12:02:17.105Z,4.80
2018-06-25T12:04:43.845Z,3.93
2018-06-25T12:07:10.637Z,4.10
2018-06-25T12:09:38.464Z,4.83
2018-06-25T12:12:06.135Z,4.13
2018-06-25T12:14:33.827Z,4.73
2018-06-25T12:17:01.256Z,5.60
2018-06-25T12:22:10.634Z,4.53
2018-06-25T12:24:37.458Z,4.00
2018-06-25T12:27:04.468Z,4.57
2018-06-25T12:29:31.559Z,4.33
2018-06-25T12:31:58.805Z,4.30
2018-06-25T12:34:26.561Z,4.17
2018-06-25T12:36:54.327Z,4.70
2018-06-25T12:39:21.541Z,4.27
2018-06-25T12:41:48.790Z,4.77
2018-06-25T12:44:15.508Z,4.23
2018-06-25T12:46:41.960Z,4.33
2018-06-25T12:49:08.474Z,4.23
2018-06-25T12:51:35.278Z,4.07
2018-06-25T12:54:01.640Z,4.30
2018-06-25T12:56:28.004Z,4.17
2018-06-25T12:58:54.463Z,4.20
2018-06-25T13:01:21.405Z,4.30
2018-06-25T13:03:49.748Z,4.73
2018-06-25T13:06:16.590Z,5.03
2018-06-25T13:08:43.153Z,4.43
2018-06-25T13:11:09.757Z,4.90
2018-06-25T13:13:36.269Z,5.27
2018-06-25T13:16:02.907Z,4.40
2018-06-25T13:18:29.361Z,4.30
2018-06-25T13:20:55.983Z,4.10
2018-06-25T13:23:22.491Z,4.40
2018-06-25T13:28:23.013Z,4.10
2018-06-25T13:30:49.643Z,3.80
2018-06-25T13:33:16.197Z,4.30
2018-06-25T13:35:43.662Z,4.93
2018-06-25T13:38:10.749Z,4.67
2018-06-25T13:43:16.123Z,4.00
2018-06-25T13:45:42.553Z,4.20
2018-06-25T13:48:10.337Z,3.93
2018-06-25T13:50:37.002Z,4.20
2018-06-25T13:53:03.673Z,3.80
2018-06-25T13:55:30.647Z,4.17
2018-06-25T13:57:57.535Z,3.43
2018-06-25T14:00:24.004Z,3.77
2018-06-25T14:02:50.407Z,4.40
2018-06-25T14:05:16.942Z,4.20
2018-06-25T14:07:43.349Z,3.50
2018-06-25T14:10:09.900Z,3.80
2018-06-25T14:12:36.483Z,3.83
2018-06-25T14:15:03.112Z,3.70
2018-06-25T14:17:29.716Z,3.60
2018-06-25T14:19:56.085Z,4.00
2018-06-25T14:22:22.419Z,4.00
2018-06-25T14:24:48.788Z,3.73
2018-06-25T14:27:15.234Z,4.47
2018-06-25T14:29:41.589Z,4.00
2018-06-25T14:32:08.151Z,4.60
2018-06-25T14:34:34.795Z,4.00
2018-06-25T14:37:01.160Z,3.70
2018-06-25T14:39:27.679Z,3.93
2018-06-25T14:41:54.093Z,4.00
2018-06-25T14:44:20.564Z,4.20
2018-06-25T14:46:46.965Z,4.30
2018-06-25T14:49:13.321Z,3.30
2018-06-25T14:51:39.664Z,3.40
2018-06-25T14:54:06.049Z,3.60
2018-06-25T14:56:32.509Z,3.20
2018-06-25T14:58:58.879Z,4.37
2018-06-25T15:01:25.240Z,4.20
2018-06-25T15:03:51.588Z,3.70
2018-06-25T15:06:17.948Z,3.87
2018-06-25T15:08:44.372Z,3.97
2018-06-25T15:11:10.765Z,3.87
2018-06-25T15:13:37.120Z,3.80
2018-06-25T15:16:03.739Z,3.90
2018-06-25T15:18:30.195Z,3.87
2018-06-25T15:20:56.567Z,4.73
2018-06-25T15:23:22.904Z,4.23
2018-06-25T15:25:49.244Z,3.50
2018-06-25T15:28:15.577Z,3.27
2018-06-25T15:30:41.894Z,3.07
2018-06-25T15:33:08.278Z,3.60
2018-06-25T15:35:34.711Z,3.30
2018-06-25T15:38:01.051Z,2.90
2018-06-25T15:40:27.441Z,3.80
2018-06-25T15:42:54.088Z,3.53
2018-06-25T15:45:22.924Z,3.70
2018-06-25T15:47:49.772Z,3.13
2018-06-25T15:50:16.115Z,4.30
2018-06-25T15:52:42.465Z,3.70
2018-06-25T15:55:08.818Z,3.27
2018-06-25T15:57:35.460Z,4.23
2018-06-25T16:00:01.920Z,3.40
2018-06-25T16:02:28.589Z,3.80
2018-06-25T16:04:55.000Z,3.23
2018-06-25T16:09:54.816Z,3.60
2018-06-25T16:12:21.933Z,3.60
2018-06-25T16:14:48.310Z,3.70
2018-06-25T16:17:14.885Z,3.43
2018-06-25T16:19:41.203Z,3.10
2018-06-25T16:22:07.531Z,3.03
2018-06-25T16:24:33.875Z,3.70
2018-06-25T16:27:00.244Z,3.30
2018-06-25T16:29:26.604Z,3.50
2018-06-25T16:31:52.970Z,3.03
2018-06-25T16:34:20.316Z,3.50
2018-06-25T16:36:46.668Z,3.47
2018-06-25T16:39:13.011Z,3.40
2018-06-25T16:41:39.395Z,3.37
2018-06-25T16:44:05.757Z,4.10
2018-06-25T16:46:32.139Z,3.63
2018-06-25T16:48:58.460Z,3.47
2018-06-25T16:51:24.816Z,3.47
2018-06-25T16:53:51.142Z,3.67
2018-06-25T16:56:17.460Z,3.30
2018-06-25T16:58:43.816Z,3.77
2018-06-25T17:01:10.147Z,3.50
2018-06-25T17:03:36.473Z,3.80
2018-06-25T17:06:02.812Z,4.40
2018-06-25T17:08:29.268Z,4.70
2018-06-25T17:10:55.716Z,4.20
2018-06-25T17:13:22.061Z,4.03
2018-06-25T17:15:48.627Z,4.80
2018-06-25T17:18:15.038Z,4.07
2018-06-25T17:20:42.422Z,4.70
2018-06-25T17:23:08.865Z,4.37
2018-06-25T17:25:35.981Z,4.47
2018-06-25T17:28:02.370Z,4.23
2018-06-25T17:30:28.812Z,4.60
2018-06-25T17:32:55.223Z,4.30
2018-06-25T17:35:21.595Z,4.70
2018-06-25T17:37:48.024Z,4.70
2018-06-25T17:40:14.436Z,4.87
2018-06-25T17:42:40.811Z,4.23
2018-06-25T17:45:07.213Z,4.50
2018-06-25T17:47:33.595Z,4.80
2018-06-25T17:49:59.926Z,4.40
2018-06-25T17:52:27.404Z,4.30
2018-06-25T17:54:53.770Z,4.67
2018-06-25T17:57:20.105Z,5.37
2018-06-25T17:59:46.498Z,4.57
2018-06-25T18:02:12.885Z,4.07
2018-06-25T18:04:39.256Z,4.33
2018-06-25T18:07:05.752Z,4.40
2018-06-25T18:09:32.141Z,4.40
2018-06-25T18:11:58.612Z,4.10
2018-06-25T18:14:25.457Z,4.60
2018-06-25T18:16:52.090Z,4.30
2018-06-25T18:19:18.459Z,4.37
2018-06-25T18:21:44.820Z,4.60
2018-06-25T18:24:11.188Z,4.60
2018-06-25T18:26:37.568Z,4.70
2018-06-25T18:29:03.928Z,4.67
2018-06-25T18:31:30.391Z,4.20
2018-06-25T18:33:56.828Z,4.60
2018-06-25T18:36:23.159Z,4.87
2018-06-25T18:38:49.535Z,4.43
2018-06-25T18:41:15.854Z,4.53
2018-06-25T18:43:42.341Z,5.37
2018-06-25T18:46:08.696Z,4.20
2018-06-25T18:48:35.007Z,4.40
2018-06-25T18:51:01.409Z,3.90
2018-06-25T18:53:27.780Z,4.13
2018-06-25T18:55:54.151Z,4.30
2018-06-25T18:58:20.514Z,4.83
2018-06-25T19:00:46.881Z,5.37
2018-06-25T19:03:13.192Z,5.03
2018-06-25T19:05:39.572Z,4.70
2018-06-25T19:08:06.030Z,4.60
2018-06-25T19:10:32.414Z,4.20
2018-06-25T19:12:58.813Z,4.77
2018-06-25T19:15:25.224Z,4.03
2018-06-25T19:17:51.593Z,4.93
2018-06-25T19:20:17.973Z,4.60
2018-06-25T19:22:44.342Z,4.60
2018-06-25T19:25:10.704Z,4.80
2018-06-25T19:27:37.104Z,4.90
2018-06-25T19:30:03.436Z,5.20
2018-06-25T19:32:29.875Z,5.57
2018-06-25T19:34:56.240Z,4.73
2018-06-25T19:37:22.680Z,4.90
2018-06-25T19:39:49.039Z,4.77
2018-06-25T19:42:15.424Z,4.37
2018-06-25T19:44:41.875Z,5.23
2018-06-25T19:47:08.231Z,5.53
2018-06-25T19:49:34.601Z,4.37
2018-06-25T19:52:01.041Z,4.00
2018-06-25T19:54:27.400Z,4.77
2018-06-25T19:56:53.725Z,4.80
2018-06-25T19:59:20.063Z,4.50
2018-06-25T20:01:46.386Z,4.80
2018-06-25T20:04:12.982Z,5.40
2018-06-25T20:06:39.589Z,4.80
2018-06-25T20:09:06.088Z,4.47
2018-06-25T20:11:32.570Z,4.30
2018-06-25T20:13:59.068Z,4.97
2018-06-25T20:16:25.576Z,5.50
2018-06-25T20:18:52.017Z,4.67
2018-06-25T20:21:18.427Z,4.30
2018-06-25T20:23:44.891Z,4.37
2018-06-25T20:26:11.259Z,4.23
2018-06-25T20:28:37.636Z,4.30
2018-06-25T20:31:04.092Z,5.00
2018-06-25T20:33:30.463Z,4.00
2018-06-25T20:35:56.883Z,4.80
2018-06-25T20:38:24.234Z,4.40
2018-06-25T20:40:50.590Z,4.50
2018-06-25T20:43:16.908Z,4.73
2018-06-25T20:45:43.283Z,4.80
2018-06-25T20:48:09.895Z,4.33
2018-06-25T20:50:36.235Z,4.67
2018-06-25T20:53:02.859Z,5.10
2018-06-25T20:55:29.186Z,5.30
2018-06-25T20:57:55.695Z,5.10
2018-06-25T21:00:22.013Z,5.20
2018-06-25T21:02:48.341Z,4.80
2018-06-25T21:05:14.696Z,4.47
2018-06-25T21:07:41.084Z,5.13
2018-06-25T21:10:07.428Z,4.90
2018-06-25T21:12:33.861Z,5.03
2018-06-25T21:15:00.252Z,5.03
2018-06-25T21:17:26.898Z,4.47
2018-06-25T21:19:53.266Z,5.30
2018-06-25T21:22:19.647Z,5.60
2018-06-25T21:24:45.997Z,5.40
2018-06-25T21:27:12.328Z,5.30
2018-06-25T21:29:38.684Z,5.27
2018-06-25T21:32:05.006Z,5.33
2018-06-25T21:34:31.349Z,4.90
2018-06-25T21:36:57.718Z,4.80
2018-06-25T21:39:24.048Z,4.90
2018-06-25T21:41:50.488Z,5.27
2018-06-25T21:44:16.800Z,5.03
2018-06-25T21:46:43.166Z,5.17
2018-06-25T21:49:09.580Z,5.43
2018-06-25T21:51:36.015Z,5.03
2018-06-25T21:54:02.343Z,5.40
2018-06-25T21:56:28.782Z,5.03
2018-06-25T21:58:55.156Z,5.23
2018-06-25T22:01:21.580Z,4.70
2018-06-25T22:03:48.017Z,5.37
2018-06-25T22:06:14.359Z,5.23
2018-06-25T22:08:40.680Z,5.10
2018-06-25T22:11:07.033Z,5.07
2018-06-25T22:13:33.435Z,5.53
2018-06-25T22:15:59.935Z,5.40
2018-06-25T22:18:26.269Z,5.00
2018-06-25T22:20:52.646Z,5.20
2018-06-25T22:23:18.972Z,5.17
2018-06-25T22:25:45.319Z,4.93
2018-06-25T22:28:11.623Z,5.70
2018-06-25T22:30:37.988Z,5.77
2018-06-25T22:33:04.340Z,4.90
2018-06-25T22:35:30.683Z,5.20
2018-06-25T22:37:57.044Z,4.77
2018-06-25T22:40:23.391Z,5.30
2018-06-25T22:42:49.774Z,5.10
2018-06-25T22:45:16.113Z,5.13
2018-06-25T22:47:42.494Z,4.93
2018-06-25T22:50:09.690Z,5.47
2018-06-25T22:52:36.028Z,5.80
2018-06-25T22:55:02.387Z,5.23
2018-06-25T22:57:28.740Z,5.20
2018-06-25T22:59:55.056Z,4.70
2018-06-25T23:02:21.396Z,4.87
2018-06-25T23:04:47.813Z,5.27
2018-06-25T23:07:14.205Z,5.33
2018-06-25T23:09:40.568Z,5.10
2018-06-25T23:12:06.927Z,5.10
2018-06-25T23:14:33.432Z,4.70
2018-06-25T23:16:59.785Z,5.20
2018-06-25T23:19:26.182Z,5.03
2018-06-25T23:21:52.560Z,5.50
2018-06-25T23:24:18.931Z,4.87
2018-06-25T23:26:45.268Z,5.53
2018-06-25T23:29:11.629Z,4.37
2018-06-25T23:31:38.053Z,5.40
2018-06-25T23:34:04.466Z,4.90
2018-06-25T23:36:30.828Z,5.53
2018-06-25T23:38:57.141Z,5.27
2018-06-25T23:41:23.495Z,4.67
2018-06-25T23:43:49.936Z,5.03
2018-06-25T23:46:16.285Z,4.87
2018-06-25T23:48:42.643Z,4.93
2018-06-25T23:51:08.960Z,4.60
2018-06-25T23:53:35.339Z,5.10
2018-06-25T23:56:01.656Z,4.77
2018-06-25T23:58:28.021Z,4.80
